createdAt,value
2022-09-29T00:00:57.935Z,6.53
2022-09-29T00:03:26.072Z,7.97
2022-09-29T00:05:55.667Z,5.63
2022-09-29T00:08:25.473Z,6.40
2022-09-29T00:10:53.603Z,5.38
2022-09-29T00:13:22.399Z,7.15
2022-09-29T00:15:59.342Z,7.15
2022-09-29T00:18:28.197Z,7.85
2022-09-29T00:21:00.727Z,6.90
2022-09-29T00:23:29.666Z,8.50
2022-09-29T00:26:02.518Z,7.37
2022-09-29T00:28:31.147Z,6.50
2022-09-29T00:31:01.798Z,7.43
2022-09-29T00:33:31.328Z,6.70
2022-09-29T00:36:03.758Z,4.50
2022-09-29T00:38:32.338Z,4.47
2022-09-29T00:41:00.647Z,6.90
2022-09-29T00:43:54.470Z,8.83
2022-09-29T00:46:29.909Z,6.27
2022-09-29T00:49:00.725Z,6.97
2022-09-29T00:51:30.349Z,9.07
2022-09-29T00:53:59.667Z,6.40
2022-09-29T00:56:28.616Z,5.70
2022-09-29T00:58:59.906Z,6.80
2022-09-29T01:01:32.325Z,6.33
2022-09-29T01:04:04.873Z,8.87
2022-09-29T01:06:37.469Z,8.90
2022-09-29T01:09:07.635Z,4.37
2022-09-29T01:11:37.440Z,5.93
2022-09-29T01:14:08.758Z,5.70
2022-09-29T01:16:39.408Z,7.50
2022-09-29T01:19:10.859Z,8.27
2022-09-29T01:21:48.644Z,5.83
2022-09-29T01:24:41.449Z,7.47
2022-09-29T01:27:23.558Z,6.10
2022-09-29T01:30:18.072Z,7.57
2022-09-29T01:33:19.524Z,5.17
2022-09-29T01:35:57.162Z,4.97
2022-09-29T01:38:36.884Z,6.17
2022-09-29T01:41:09.309Z,6.03
2022-09-29T01:43:41.900Z,4.53
2022-09-29T01:46:14.553Z,6.23
2022-09-29T01:48:48.077Z,7.03
2022-09-29T01:51:20.207Z,7.87
2022-09-29T01:53:51.745Z,4.80
2022-09-29T01:56:25.293Z,6.70
2022-09-29T01:58:56.493Z,4.73
2022-09-29T02:01:29.337Z,4.73
2022-09-29T02:04:03.682Z,6.90
2022-09-29T02:06:37.496Z,6.70
2022-09-29T02:09:10.286Z,5.97
2022-09-29T02:11:42.015Z,5.97
2022-09-29T02:14:14.934Z,5.43
2022-09-29T02:16:49.602Z,7.10
2022-09-29T02:19:23.386Z,5.33
2022-09-29T02:21:54.375Z,4.60
2022-09-29T02:24:23.464Z,4.17
2022-09-29T02:26:52.711Z,5.03
2022-09-29T02:29:21.664Z,7.40
2022-09-29T02:31:50.442Z,6.17
2022-09-29T02:34:22.523Z,3.90
2022-09-29T02:36:59.842Z,4.53
2022-09-29T02:39:40.672Z,5.33
2022-09-29T02:42:19.549Z,7.03
2022-09-29T02:44:59.512Z,4.67
2022-09-29T02:47:46.948Z,3.30
2022-09-29T02:50:59.505Z,5.10
2022-09-29T02:53:41.162Z,4.60
2022-09-29T02:56:15.471Z,4.97
2022-09-29T02:58:50.824Z,6.50
2022-09-29T03:01:22.088Z,4.40
2022-09-29T03:03:50.125Z,5.80
2022-09-29T03:06:21.261Z,3.93
2022-09-29T03:08:50.599Z,5.27
2022-09-29T03:11:18.543Z,6.87
2022-09-29T03:13:46.558Z,4.30
2022-09-29T03:16:14.762Z,4.23
2022-09-29T03:18:44.079Z,7.30
2022-09-29T03:21:12.145Z,5.07
2022-09-29T03:23:40.926Z,4.80
2022-09-29T03:26:10.319Z,4.67
2022-09-29T03:28:38.285Z,6.17
2022-09-29T03:31:07.912Z,3.97
2022-09-29T03:33:36.990Z,4.63
2022-09-29T03:36:05.518Z,5.20
2022-09-29T03:38:34.048Z,4.20
2022-09-29T03:41:02.220Z,5.90
2022-09-29T03:43:31.795Z,5.63
2022-09-29T03:45:59.921Z,3.70
2022-09-29T03:48:31.232Z,4.10
2022-09-29T03:50:59.492Z,3.87
2022-09-29T03:53:27.454Z,4.67
2022-09-29T03:55:55.445Z,4.23
2022-09-29T03:58:23.529Z,4.67
2022-09-29T04:00:53.039Z,3.63
2022-09-29T04:03:21.160Z,5.07
2022-09-29T04:05:49.710Z,5.13
2022-09-29T04:08:18.116Z,5.03
2022-09-29T04:10:48.471Z,5.00
2022-09-29T04:13:20.088Z,3.70
2022-09-29T04:15:48.401Z,3.67
2022-09-29T04:18:17.804Z,5.97
2022-09-29T04:20:45.816Z,5.07
2022-09-29T04:23:13.840Z,3.17
2022-09-29T04:25:41.905Z,5.87
2022-09-29T04:28:09.899Z,4.87
2022-09-29T04:30:38.065Z,2.73
2022-09-29T04:33:06.132Z,3.43
2022-09-29T04:35:37.009Z,5.33
2022-09-29T04:38:05.684Z,4.30
2022-09-29T04:40:33.745Z,3.73
2022-09-29T04:43:01.811Z,3.77
2022-09-29T04:45:29.929Z,4.30
2022-09-29T04:47:58.276Z,4.80
2022-09-29T04:50:26.361Z,5.37
2022-09-29T04:52:55.762Z,4.93
2022-09-29T04:55:23.870Z,4.03
2022-09-29T04:57:51.887Z,4.60
2022-09-29T05:00:20.542Z,5.00
2022-09-29T05:02:49.976Z,4.57
2022-09-29T05:05:18.638Z,4.30
2022-09-29T05:07:48.115Z,4.73
2022-09-29T05:10:17.626Z,5.53
2022-09-29T05:12:49.919Z,3.90
2022-09-29T05:15:22.118Z,5.67
2022-09-29T05:17:53.191Z,4.33
2022-09-29T05:20:21.206Z,3.83
2022-09-29T05:22:49.150Z,6.60
2022-09-29T05:25:18.657Z,5.97
2022-09-29T05:27:46.611Z,5.67
2022-09-29T05:30:14.681Z,4.20
2022-09-29T05:32:44.613Z,5.90
2022-09-29T05:35:12.793Z,6.17
2022-09-29T05:37:40.772Z,6.97
2022-09-29T05:40:10.192Z,4.00
2022-09-29T05:42:40.950Z,5.07
2022-09-29T05:45:10.229Z,6.37
2022-09-29T05:47:38.206Z,5.80
2022-09-29T05:50:07.015Z,4.30
2022-09-29T05:52:35.046Z,6.57
2022-09-29T05:55:03.189Z,6.07
2022-09-29T05:57:31.558Z,8.03
2022-09-29T06:00:00.984Z,7.50
2022-09-29T06:02:29.105Z,5.47
2022-09-29T06:04:57.120Z,8.73
2022-09-29T06:07:25.159Z,5.73
2022-09-29T06:09:53.189Z,6.87
2022-09-29T06:12:21.859Z,5.47
2022-09-29T06:14:49.983Z,7.80
2022-09-29T06:17:19.275Z,8.17
2022-09-29T06:19:47.227Z,6.35
2022-09-29T06:22:15.158Z,6.60
2022-09-29T06:24:43.066Z,6.10
2022-09-29T06:27:11.025Z,12.48
2022-09-29T06:29:39.005Z,7.95
2022-09-29T06:32:07.175Z,6.20
2022-09-29T06:34:58.638Z,8.48
2022-09-29T06:37:35.504Z,8.05
2022-09-29T06:40:08.836Z,11.20
2022-09-29T06:42:38.838Z,8.10
2022-09-29T06:45:08.042Z,9.52
2022-09-29T06:47:35.986Z,10.40
2022-09-29T06:50:23.154Z,8.52
2022-09-29T06:53:03.078Z,6.95
2022-09-29T06:55:32.198Z,9.05
2022-09-29T06:58:03.974Z,9.75
2022-09-29T07:00:35.054Z,10.68
2022-09-29T07:03:03.315Z,6.82
2022-09-29T07:05:33.392Z,6.72
2022-09-29T07:08:03.015Z,7.20
2022-09-29T07:10:31.095Z,12.18
2022-09-29T07:12:59.128Z,10.38
2022-09-29T07:15:31.756Z,8.20
2022-09-29T07:18:01.006Z,11.57
2022-09-29T07:20:29.950Z,8.43
2022-09-29T07:22:59.632Z,10.35
2022-09-29T07:25:50.417Z,10.35
2022-09-29T07:28:15.924Z,10.05
2022-09-29T07:30:43.944Z,8.60
2022-09-29T07:33:11.951Z,9.27
2022-09-29T07:35:40.353Z,9.95
2022-09-29T07:38:09.760Z,7.35
2022-09-29T07:40:37.957Z,10.27
2022-09-29T07:43:07.635Z,7.45
2022-09-29T07:45:41.186Z,6.20
2022-09-29T07:48:09.228Z,10.00
2022-09-29T07:50:37.222Z,6.20
2022-09-29T07:53:05.332Z,8.57
2022-09-29T07:55:34.777Z,6.10
2022-09-29T07:58:02.994Z,6.03
2022-09-29T08:00:32.608Z,7.57
2022-09-29T08:03:03.338Z,10.02
2022-09-29T08:05:33.609Z,6.22
2022-09-29T08:08:02.073Z,5.57
2022-09-29T08:10:31.198Z,6.60
2022-09-29T08:13:01.145Z,6.25
2022-09-29T08:15:29.177Z,8.70
2022-09-29T08:17:57.467Z,7.80
2022-09-29T08:20:26.835Z,5.55
2022-09-29T08:22:55.348Z,5.30
2022-09-29T08:25:23.986Z,5.72
2022-09-29T08:27:55.733Z,4.75
2022-09-29T08:30:25.489Z,7.32
2022-09-29T08:32:53.803Z,5.63
2022-09-29T08:35:22.281Z,5.28
2022-09-29T08:37:50.433Z,7.10
2022-09-29T08:40:19.154Z,5.57
2022-09-29T08:43:01.668Z,4.55
2022-09-29T08:45:35.680Z,6.55
2022-09-29T08:48:21.512Z,4.75
2022-09-29T08:50:57.357Z,3.83
2022-09-29T08:53:43.076Z,7.80
2022-09-29T08:56:18.147Z,4.03
2022-09-29T08:58:46.365Z,5.55
2022-09-29T09:01:25.657Z,5.80
2022-09-29T09:04:14.607Z,6.85
2022-09-29T09:06:57.618Z,4.55
2022-09-29T09:09:42.752Z,5.03
2022-09-29T09:12:23.150Z,5.05
2022-09-29T09:15:09.744Z,4.38
2022-09-29T09:18:06.356Z,5.13
2022-09-29T09:20:36.866Z,7.88
2022-09-29T09:23:16.309Z,8.18
2022-09-29T09:25:50.695Z,5.30
2022-09-29T09:28:22.146Z,5.32
2022-09-29T09:30:55.430Z,7.60
2022-09-29T09:33:31.993Z,4.85
2022-09-29T09:36:05.611Z,4.60
2022-09-29T09:38:46.999Z,4.95
2022-09-29T09:41:18.569Z,5.53
2022-09-29T09:43:50.076Z,7.35
2022-09-29T09:46:23.619Z,5.05
2022-09-29T09:49:01.995Z,7.28
2022-09-29T09:54:26.126Z,5.53
2022-09-29T09:57:09.150Z,5.13
2022-09-29T09:59:46.253Z,4.68
2022-09-29T10:02:20.153Z,3.97
2022-09-29T10:04:52.631Z,4.20
2022-09-29T10:07:22.018Z,4.22
2022-09-29T10:09:50.637Z,2.88
2022-09-29T10:12:20.212Z,3.97
2022-09-29T10:14:53.690Z,3.25
2022-09-29T10:17:26.115Z,4.32
2022-09-29T10:19:58.519Z,3.72
2022-09-29T10:22:27.421Z,5.35
2022-09-29T10:24:59.467Z,3.13
2022-09-29T10:27:27.616Z,2.40
2022-09-29T10:29:58.397Z,2.83
2022-09-29T10:32:36.585Z,2.65
2022-09-29T10:35:16.853Z,2.20
2022-09-29T10:37:48.845Z,2.25
2022-09-29T10:40:21.395Z,2.90
2022-09-29T10:42:51.777Z,3.35
2022-09-29T10:45:21.854Z,4.07
2022-09-29T10:48:08.381Z,2.55
2022-09-29T10:50:48.876Z,1.88
2022-09-29T10:53:25.603Z,1.23
2022-09-29T10:55:56.832Z,2.17
2022-09-29T10:58:45.083Z,1.70
2022-09-29T11:01:20.379Z,2.05
2022-09-29T11:03:51.702Z,2.40
2022-09-29T11:06:28.337Z,2.30
2022-09-29T11:09:01.930Z,2.05
2022-09-29T11:11:32.103Z,2.28
2022-09-29T11:14:00.607Z,2.53
2022-09-29T11:16:31.510Z,2.03
2022-09-29T11:19:04.322Z,3.55
2022-09-29T11:22:23.169Z,2.42
2022-09-29T11:25:20.284Z,2.33
2022-09-29T11:28:00.454Z,2.05
2022-09-29T11:30:38.617Z,2.45
2022-09-29T11:33:19.069Z,4.53
2022-09-29T11:35:55.603Z,3.55
2022-09-29T11:38:51.830Z,3.33
2022-09-29T11:41:46.102Z,2.72
2022-09-29T11:44:30.155Z,2.35
2022-09-29T11:47:08.458Z,2.75
2022-09-29T11:49:50.514Z,4.63
2022-09-29T11:52:43.167Z,3.65
2022-09-29T11:55:31.711Z,2.25
2022-09-29T11:58:15.275Z,1.88
2022-09-29T12:01:00.230Z,5.38
2022-09-29T12:03:43.359Z,1.70
2022-09-29T12:06:34.653Z,1.85
2022-09-29T12:09:18.580Z,2.58
2022-09-29T12:12:18.944Z,2.20
2022-09-29T12:15:02.667Z,1.75
2022-09-29T12:17:34.503Z,1.88
2022-09-29T12:20:05.352Z,3.92
2022-09-29T12:22:36.908Z,2.90
2022-09-29T12:25:07.508Z,1.92
2022-09-29T12:27:40.650Z,1.65
2022-09-29T12:30:19.727Z,1.55
2022-09-29T12:32:53.436Z,2.53
2022-09-29T12:35:27.042Z,1.65
2022-09-29T12:38:00.650Z,2.03
2022-09-29T12:40:34.854Z,1.80
2022-09-29T12:43:10.568Z,2.42
2022-09-29T12:45:49.509Z,2.10
2022-09-29T12:48:27.120Z,2.42
2022-09-29T12:51:02.243Z,1.70
2022-09-29T12:53:35.711Z,2.63
2022-09-29T12:56:08.639Z,2.88
2022-09-29T12:58:42.295Z,1.98
2022-09-29T13:01:26.703Z,1.92
2022-09-29T13:04:33.479Z,2.08
2022-09-29T13:07:40.698Z,2.10
2022-09-29T13:10:37.137Z,1.80
2022-09-29T13:13:27.704Z,2.92
2022-09-29T13:16:07.053Z,3.92
2022-09-29T13:19:14.542Z,1.60
2022-09-29T13:22:02.175Z,1.70
2022-09-29T13:24:51.404Z,1.73
2022-09-29T13:27:30.632Z,1.52
2022-09-29T13:30:05.734Z,1.67
2022-09-29T13:32:39.931Z,1.63
2022-09-29T13:35:16.158Z,2.33
2022-09-29T13:37:51.260Z,2.00
2022-09-29T13:40:25.603Z,2.15
2022-09-29T13:42:56.780Z,2.85
2022-09-29T13:45:44.773Z,1.98
2022-09-29T13:48:35.917Z,3.83
2022-09-29T13:54:23.249Z,1.95
2022-09-29T13:56:59.488Z,1.50
2022-09-29T13:59:28.815Z,1.70
2022-09-29T14:01:57.423Z,2.53
2022-09-29T14:04:44.927Z,2.20
2022-09-29T14:07:15.035Z,2.03
2022-09-29T14:09:48.781Z,1.58
2022-09-29T14:12:26.451Z,2.60
2022-09-29T14:14:58.176Z,2.30
2022-09-29T14:17:30.424Z,3.13
2022-09-29T14:20:05.099Z,2.50
2022-09-29T14:23:00.870Z,1.95
2022-09-29T14:25:53.659Z,1.92
2022-09-29T14:28:31.616Z,2.35
2022-09-29T14:31:03.005Z,2.83
2022-09-29T14:33:37.262Z,2.70
2022-09-29T14:36:08.415Z,1.95
2022-09-29T14:38:40.221Z,6.75
2022-09-29T14:41:27.233Z,4.10
2022-09-29T14:43:59.075Z,1.98
2022-09-29T14:47:15.925Z,2.15
2022-09-29T14:50:26.863Z,2.65
2022-09-29T14:53:03.762Z,2.40
2022-09-29T14:55:43.607Z,3.15
2022-09-29T14:58:30.497Z,2.53
2022-09-29T15:01:09.509Z,3.00
2022-09-29T15:03:45.188Z,2.00
2022-09-29T15:06:16.122Z,2.22
2022-09-29T15:08:45.567Z,2.38
2022-09-29T15:11:27.799Z,2.08
2022-09-29T15:14:00.395Z,3.38
2022-09-29T15:16:47.273Z,2.00
2022-09-29T15:19:41.898Z,2.50
2022-09-29T15:22:28.140Z,2.58
2022-09-29T15:25:17.464Z,2.88
2022-09-29T15:27:48.912Z,3.78
2022-09-29T15:30:20.645Z,2.30
2022-09-29T15:32:49.999Z,2.28
2022-09-29T15:35:22.802Z,2.25
2022-09-29T15:38:16.315Z,3.30
2022-09-29T15:40:45.962Z,5.03
2022-09-29T15:43:23.065Z,2.55
2022-09-29T15:46:03.147Z,2.33
2022-09-29T15:48:32.284Z,2.40
2022-09-29T15:51:01.919Z,2.75
2022-09-29T15:53:37.638Z,2.47
2022-09-29T15:56:08.968Z,3.38
2022-09-29T15:58:44.156Z,3.00
2022-09-29T16:01:17.557Z,3.97
2022-09-29T16:03:50.874Z,3.15
2022-09-29T16:06:24.696Z,5.05
2022-09-29T16:08:56.170Z,3.28
2022-09-29T16:11:28.988Z,5.40
2022-09-29T16:14:03.285Z,3.05
2022-09-29T16:16:36.846Z,3.78
2022-09-29T16:19:10.802Z,3.53
2022-09-29T16:21:39.761Z,2.60
2022-09-29T16:24:13.625Z,2.60
2022-09-29T16:26:44.242Z,4.70
2022-09-29T16:29:34.862Z,2.90
2022-09-29T16:32:42.540Z,3.10
2022-09-29T16:35:40.765Z,3.50
2022-09-29T16:38:18.655Z,4.88
2022-09-29T16:40:46.873Z,5.55
2022-09-29T16:43:24.517Z,5.18
2022-09-29T16:45:56.030Z,3.55
2022-09-29T16:48:28.762Z,5.38
2022-09-29T16:50:58.542Z,3.63
2022-09-29T16:53:29.720Z,3.03
2022-09-29T16:56:02.497Z,4.53
2022-09-29T16:58:31.935Z,3.05
2022-09-29T17:00:59.959Z,2.97
2022-09-29T17:03:30.925Z,3.72
2022-09-29T17:06:03.191Z,2.70
2022-09-29T17:08:34.728Z,2.95
2022-09-29T17:11:03.104Z,4.03
2022-09-29T17:13:36.756Z,4.72
2022-09-29T17:16:08.161Z,2.58
2022-09-29T17:18:37.664Z,3.42
2022-09-29T17:21:05.845Z,3.30
2022-09-29T17:23:35.682Z,4.03
2022-09-29T17:26:17.820Z,3.35
2022-09-29T17:28:45.834Z,3.05
2022-09-29T17:31:14.062Z,3.78
2022-09-29T17:33:43.507Z,3.78
2022-09-29T17:36:14.923Z,4.38
2022-09-29T17:38:42.986Z,3.00
2022-09-29T17:41:16.380Z,3.70
2022-09-29T17:43:47.515Z,4.68
2022-09-29T17:46:16.512Z,4.40
2022-09-29T17:48:47.730Z,5.68
2022-09-29T17:51:19.036Z,3.40
2022-09-29T17:53:48.172Z,3.05
2022-09-29T17:56:25.933Z,6.25
2022-09-29T17:58:55.373Z,3.60
2022-09-29T18:01:25.242Z,4.72
2022-09-29T18:03:57.236Z,4.53
2022-09-29T18:06:27.156Z,4.68
2022-09-29T18:08:57.138Z,5.32
2022-09-29T18:11:27.954Z,6.10
2022-09-29T18:13:56.332Z,6.28
2022-09-29T18:16:26.400Z,5.82
2022-09-29T18:18:59.181Z,6.50
2022-09-29T18:21:27.558Z,8.88
2022-09-29T18:23:55.735Z,4.95
2022-09-29T18:26:23.840Z,5.53
2022-09-29T18:28:53.819Z,3.47
2022-09-29T18:31:25.344Z,5.90
2022-09-29T18:33:55.437Z,6.03
2022-09-29T18:36:23.680Z,5.55
2022-09-29T18:38:51.815Z,6.53
2022-09-29T18:41:23.090Z,5.65
2022-09-29T18:43:56.137Z,5.38
2022-09-29T18:46:29.914Z,6.78
2022-09-29T18:48:59.684Z,5.93
2022-09-29T18:51:28.015Z,5.47
2022-09-29T18:53:56.071Z,8.43
2022-09-29T18:56:24.336Z,6.25
2022-09-29T18:58:52.414Z,10.50
2022-09-29T19:01:28.651Z,8.93
2022-09-29T19:03:57.294Z,14.13
2022-09-29T19:06:26.915Z,8.23
2022-09-29T19:08:54.974Z,7.70
2022-09-29T19:11:25.843Z,12.80
2022-09-29T19:13:56.263Z,11.95
2022-09-29T19:16:28.184Z,7.13
2022-09-29T19:18:56.539Z,8.30
2022-09-29T19:21:26.086Z,9.63
2022-09-29T19:23:54.504Z,8.05
2022-09-29T19:26:23.304Z,9.40
2022-09-29T19:28:52.059Z,9.27
2022-09-29T19:31:22.827Z,14.02
2022-09-29T19:33:51.919Z,10.95
2022-09-29T19:36:22.924Z,10.35
2022-09-29T19:38:52.542Z,11.20
2022-09-29T19:41:23.027Z,7.90
2022-09-29T19:43:51.725Z,7.45
2022-09-29T19:46:21.071Z,12.25
2022-09-29T19:48:49.403Z,9.65
2022-09-29T19:51:35.884Z,9.95
2022-09-29T19:54:14.887Z,7.65
2022-09-29T19:56:45.569Z,9.93
2022-09-29T19:59:14.701Z,8.23
2022-09-29T20:01:44.669Z,9.38
2022-09-29T20:04:15.946Z,6.88
2022-09-29T20:06:45.070Z,10.17
2022-09-29T20:09:15.355Z,8.87
2022-09-29T20:11:47.004Z,8.25
2022-09-29T20:14:17.682Z,8.90
2022-09-29T20:16:46.516Z,8.60
2022-09-29T20:19:16.684Z,11.82
2022-09-29T20:21:45.331Z,8.70
2022-09-29T20:24:18.571Z,7.05
2022-09-29T20:26:48.756Z,14.18
2022-09-29T20:29:18.896Z,14.45
2022-09-29T20:31:48.263Z,8.30
2022-09-29T20:34:18.438Z,6.93
2022-09-29T20:36:50.884Z,8.25
2022-09-29T20:39:25.477Z,6.70
2022-09-29T20:41:54.676Z,7.37
2022-09-29T20:44:25.677Z,7.57
2022-09-29T20:46:54.481Z,7.00
2022-09-29T20:49:22.804Z,5.07
2022-09-29T20:51:51.742Z,6.33
2022-09-29T20:54:20.598Z,7.17
2022-09-29T20:56:50.463Z,9.10
2022-09-29T20:59:20.139Z,6.80
2022-09-29T21:01:49.098Z,7.17
2022-09-29T21:04:19.227Z,7.10
2022-09-29T21:06:49.204Z,5.83
2022-09-29T21:09:19.146Z,6.73
2022-09-29T21:11:47.391Z,6.63
2022-09-29T21:14:19.521Z,7.47
2022-09-29T21:16:51.248Z,6.73
2022-09-29T21:19:26.471Z,7.03
2022-09-29T21:21:55.075Z,6.90
2022-09-29T21:24:23.165Z,8.03
2022-09-29T21:26:51.194Z,5.70
2022-09-29T21:29:21.151Z,5.67
2022-09-29T21:31:49.255Z,8.27
2022-09-29T21:34:17.472Z,7.80
2022-09-29T21:36:45.616Z,11.63
2022-09-29T21:39:14.574Z,5.40
2022-09-29T21:41:44.307Z,6.13
2022-09-29T21:44:15.577Z,7.70
2022-09-29T21:46:45.874Z,8.03
2022-09-29T21:49:16.320Z,6.10
2022-09-29T21:51:46.466Z,6.07
2022-09-29T21:54:15.839Z,9.50
2022-09-29T21:56:45.374Z,7.60
2022-09-29T21:59:15.712Z,7.10
2022-09-29T22:01:46.007Z,6.23
2022-09-29T22:04:14.971Z,7.23
2022-09-29T22:06:45.041Z,7.80
2022-09-29T22:09:20.570Z,8.77
2022-09-29T22:11:49.943Z,5.70
2022-09-29T22:14:19.013Z,5.50
2022-09-29T22:16:48.447Z,4.87
2022-09-29T22:19:24.602Z,6.67
2022-09-29T22:21:53.510Z,6.23
2022-09-29T22:24:21.742Z,9.17
2022-09-29T22:26:49.814Z,7.17
2022-09-29T22:29:17.776Z,8.10
2022-09-29T22:31:46.076Z,6.40
2022-09-29T22:34:15.683Z,8.10
2022-09-29T22:36:43.702Z,5.83
2022-09-29T22:39:12.144Z,7.27
2022-09-29T22:41:41.165Z,5.67
2022-09-29T22:44:09.472Z,5.53
2022-09-29T22:46:37.863Z,6.10
2022-09-29T22:49:06.463Z,6.13
2022-09-29T22:51:35.847Z,5.83
2022-09-29T22:54:03.800Z,9.43
2022-09-29T22:56:31.925Z,5.93
2022-09-29T22:59:01.952Z,6.13
2022-09-29T23:01:30.053Z,5.23
2022-09-29T23:03:58.455Z,5.73
2022-09-29T23:06:26.853Z,5.57
2022-09-29T23:08:56.368Z,5.90
2022-09-29T23:11:24.390Z,7.27
2022-09-29T23:13:52.803Z,6.20
2022-09-29T23:16:21.211Z,8.33
2022-09-29T23:18:53.926Z,7.80
2022-09-29T23:21:22.932Z,6.40
2022-09-29T23:23:54.910Z,8.97
2022-09-29T23:26:24.658Z,6.57
2022-09-29T23:28:52.990Z,7.50
2022-09-29T23:31:21.109Z,6.37
2022-09-29T23:33:53.001Z,5.90
2022-09-29T23:36:21.051Z,7.90
2022-09-29T23:39:06.499Z,4.90
2022-09-29T23:41:36.247Z,6.07
2022-09-29T23:44:05.950Z,7.03
2022-09-29T23:46:36.185Z,7.07
2022-09-29T23:49:09.309Z,7.40
2022-09-29T23:51:38.946Z,7.83
2022-09-29T23:54:10.333Z,7.77
2022-09-29T23:56:40.170Z,5.93
2022-09-29T23:59:09.072Z,6.40
